Time;durP1;ratioP1;P1;durP2;ratioP2;P2;SDS_P1;SDS_P2;PMS_P1;PMS_P2;Temp;Humidity;BMP_temperature;BMP_pressure;BME280_temperature;BME280_humidity;BME280_pressure;Samples;Min_cycle;Max_cycle;Signal;HPM_P1;HPM_P2
2022/05/06 00:01:52;;;;;;;10.32;7.97;;;;;;;;;;5008294;28;20045;-77
2022/05/06 00:04:18;;;;;;;10.48;8.35;;;;;;;;;;4998543;28;20042;-78
2022/05/06 00:06:44;;;;;;;12.88;9.45;;;;;;;;;;5033244;28;20076;-77
2022/05/06 00:09:13;;;;;;;13.35;9.45;;;;;;;;;;5015288;28;20053;-77
2022/05/06 00:11:45;;;;;;;11.82;9.77;;;;;;;;;;5040191;28;20042;-77
2022/05/06 00:14:14;;;;;;;11.32;9.52;;;;;;;;;;5017495;28;20045;-77
2022/05/06 00:16:40;;;;;;;10.93;9.60;;;;;;;;;;5041706;28;20056;-78
2022/05/06 00:19:09;;;;;;;11.40;10.15;;;;;;;;;;5006771;28;20459;-77
2022/05/06 00:21:35;;;;;;;9.95;8.90;;;;;;;;;;5006778;28;20175;-77
2022/05/06 00:24:02;;;;;;;10.48;9.07;;;;;;;;;;5003617;28;20311;-77
2022/05/06 00:26:28;;;;;;;13.20;9.80;;;;;;;;;;5005548;28;20112;-77
2022/05/06 00:28:54;;;;;;;12.25;9.93;;;;;;;;;;5035634;28;20121;-77
2022/05/06 00:31:20;;;;;;;11.20;9.50;;;;;;;;;;5035759;28;20053;-77
2022/05/06 00:33:48;;;;;;;10.05;9.05;;;;;;;;;;5008662;28;20464;-77
2022/05/06 00:36:17;;;;;;;10.27;8.82;;;;;;;;;;5044009;28;20041;-77
2022/05/06 00:38:43;;;;;;;9.88;8.73;;;;;;;;;;5013341;28;20041;-78
2022/05/06 00:41:13;;;;;;;12.00;9.95;;;;;;;;;;5003527;28;20382;-77
2022/05/06 00:43:42;;;;;;;10.73;9.68;;;;;;;;;;5004704;28;20785;-77
2022/05/06 00:46:12;;;;;;;11.40;10.20;;;;;;;;;;5032589;28;20045;-78
2022/05/06 00:48:40;;;;;;;11.23;10.02;;;;;;;;;;5014903;28;20091;-78
2022/05/06 00:51:08;;;;;;;10.77;9.63;;;;;;;;;;5009115;28;20053;-78
2022/05/06 00:53:35;;;;;;;11.48;10.27;;;;;;;;;;5019114;28;20446;-78
2022/05/06 00:56:01;;;;;;;11.10;9.38;;;;;;;;;;5018654;28;20048;-78
2022/05/06 00:58:30;;;;;;;13.07;9.20;;;;;;;;;;5033643;28;20138;-78
2022/05/06 01:00:56;;;;;;;10.70;9.60;;;;;;;;;;5007236;28;20046;-78
2022/05/06 01:03:22;;;;;;;10.07;9.02;;;;;;;;;;5014170;28;20069;-78
2022/05/06 01:05:50;;;;;;;11.45;8.70;;;;;;;;;;5014259;28;20143;-77
2022/05/06 01:08:16;;;;;;;11.48;9.02;;;;;;;;;;5016492;28;20052;-78
2022/05/06 01:10:43;;;;;;;11.02;9.48;;;;;;;;;;5007575;28;20064;-78
2022/05/06 01:13:09;;;;;;;10.43;9.32;;;;;;;;;;5034623;28;20046;-78
2022/05/06 01:15:38;;;;;;;10.68;8.93;;;;;;;;;;5033920;28;20402;-78
2022/05/06 01:18:12;;;;;;;9.88;8.77;;;;;;;;;;5007219;28;20054;-78
2022/05/06 01:20:39;;;;;;;8.73;7.82;;;;;;;;;;5040294;28;20050;-78
2022/05/06 01:23:05;;;;;;;9.93;8.73;;;;;;;;;;5019181;28;20045;-77
2022/05/06 01:25:31;;;;;;;9.27;7.95;;;;;;;;;;5011861;28;20049;-77
2022/05/06 01:28:02;;;;;;;9.57;7.97;;;;;;;;;;5008436;28;20045;-77
2022/05/06 01:30:37;;;;;;;9.93;8.70;;;;;;;;;;5003981;28;20139;-77
2022/05/06 01:33:14;;;;;;;11.38;8.80;;;;;;;;;;5006499;28;20130;-78
2022/05/06 01:35:45;;;;;;;11.05;7.50;;;;;;;;;;5011992;28;20057;-78
2022/05/06 01:38:14;;;;;;;;;;;;;;;;;;5001549;28;20555;-77
2022/05/06 01:40:44;;;;;;;9.60;7.90;;;;;;;;;;5005548;28;19928;-77
2022/05/06 01:43:11;;;;;;;9.68;8.48;;;;;;;;;;5012013;28;20415;-77
2022/05/06 01:45:38;;;;;;;10.77;7.70;;;;;;;;;;5016028;28;20041;-78
2022/05/06 01:48:04;;;;;;;9.65;8.07;;;;;;;;;;5013448;28;20528;-78
2022/05/06 01:50:32;;;;;;;8.98;7.70;;;;;;;;;;5007041;28;20042;-78
2022/05/06 01:52:59;;;;;;;9.02;6.88;;;;;;;;;;5005214;28;20049;-78
2022/05/06 01:55:25;;;;;;;8.93;7.57;;;;;;;;;;5007723;28;20042;-78
2022/05/06 01:57:52;;;;;;;8.35;7.28;;;;;;;;;;5003333;28;20061;-77
2022/05/06 02:00:24;;;;;;;7.80;6.72;;;;;;;;;;5011212;28;20117;-77
2022/05/06 02:02:50;;;;;;;8.07;6.63;;;;;;;;;;5015377;28;20096;-77
2022/05/06 02:05:23;;;;;;;8.10;7.00;;;;;;;;;;5008457;28;20518;-78
2022/05/06 02:07:50;;;;;;;7.93;7.13;;;;;;;;;;5010413;28;20122;-77
2022/05/06 02:10:20;;;;;;;8.98;7.45;;;;;;;;;;5009751;28;20398;-77
2022/05/06 02:12:46;;;;;;;8.52;6.88;;;;;;;;;;5012804;28;20050;-77
2022/05/06 02:15:13;;;;;;;8.40;7.50;;;;;;;;;;5016499;28;20478;-77
2022/05/06 02:17:39;;;;;;;9.07;8.10;;;;;;;;;;5008932;28;20046;-77
2022/05/06 02:20:06;;;;;;;10.02;9.02;;;;;;;;;;5029382;28;20056;-77
2022/05/06 02:22:33;;;;;;;11.35;8.40;;;;;;;;;;5006658;28;20049;-78
2022/05/06 02:24:59;;;;;;;10.38;9.15;;;;;;;;;;5013189;28;20176;-77
2022/05/06 02:27:25;;;;;;;10.07;9.02;;;;;;;;;;5008625;28;20082;-77
2022/05/06 02:35:21;;;;;;;13.40;10.13;;;;;;;;;;5005386;28;20058;-78
2022/05/06 02:37:47;;;;;;;11.23;10.02;;;;;;;;;;5021266;28;20070;-77
2022/05/06 02:40:13;;;;;;;13.30;10.52;;;;;;;;;;5011911;28;20511;-77
2022/05/06 02:42:43;;;;;;;18.25;10.20;;;;;;;;;;5019288;28;20049;-77
2022/05/06 02:45:10;;;;;;;11.65;9.93;;;;;;;;;;5032476;28;20057;-77
2022/05/06 02:47:36;;;;;;;12.98;10.27;;;;;;;;;;5015450;28;20041;-78
2022/05/06 02:50:06;;;;;;;12.77;10.32;;;;;;;;;;5016257;28;20076;-78
2022/05/06 02:52:32;;;;;;;10.40;8.90;;;;;;;;;;5024607;28;20785;-77
2022/05/06 02:55:01;;;;;;;12.40;10.00;;;;;;;;;;5040615;28;20045;-78
2022/05/06 02:57:27;;;;;;;11.77;9.65;;;;;;;;;;5018293;28;20053;-78
2022/05/06 02:59:53;;;;;;;13.20;9.68;;;;;;;;;;5012069;28;20041;-77
2022/05/06 03:02:19;;;;;;;13.25;9.43;;;;;;;;;;5002508;28;20159;-77
2022/05/06 03:04:45;;;;;;;13.30;10.45;;;;;;;;;;5012167;28;20138;-78
2022/05/06 03:07:14;;;;;;;11.90;9.50;;;;;;;;;;5004505;28;20513;-78
2022/05/06 03:09:42;;;;;;;14.38;9.60;;;;;;;;;;5009825;28;20503;-78
2022/05/06 03:12:09;;;;;;;12.13;9.80;;;;;;;;;;5040657;28;20478;-78
2022/05/06 03:14:35;;;;;;;11.00;9.07;;;;;;;;;;5007010;28;20042;-78
2022/05/06 03:17:01;;;;;;;12.90;9.60;;;;;;;;;;5012190;28;20049;-78
2022/05/06 03:19:27;;;;;;;11.43;8.70;;;;;;;;;;5040615;28;20058;-78
2022/05/06 03:21:54;;;;;;;9.63;8.15;;;;;;;;;;5026204;28;20108;-78
2022/05/06 03:24:20;;;;;;;11.18;8.88;;;;;;;;;;5053655;28;20054;-78
2022/05/06 03:26:46;;;;;;;9.65;8.45;;;;;;;;;;5012590;28;20045;-78
2022/05/06 03:29:13;;;;;;;12.80;9.07;;;;;;;;;;5009868;28;20056;-78
2022/05/06 03:31:39;;;;;;;10.65;8.93;;;;;;;;;;5007275;28;20061;-78
2022/05/06 03:34:06;;;;;;;10.23;8.77;;;;;;;;;;5015172;28;20108;-78
2022/05/06 03:36:35;;;;;;;12.65;10.07;;;;;;;;;;5009479;28;20046;-78
2022/05/06 03:39:02;;;;;;;13.70;9.38;;;;;;;;;;5003801;28;20049;-78
2022/05/06 03:41:28;;;;;;;12.40;8.82;;;;;;;;;;5001573;28;20108;-77
2022/05/06 03:43:54;;;;;;;11.13;9.07;;;;;;;;;;5017273;28;20072;-77
2022/05/06 03:46:20;;;;;;;23.10;9.63;;;;;;;;;;5019578;28;20073;-78
2022/05/06 03:48:46;;;;;;;14.00;9.10;;;;;;;;;;5011763;28;20799;-78
2022/05/06 03:51:21;;;;;;;12.32;8.93;;;;;;;;;;5040449;28;20048;-78
2022/05/06 03:53:52;;;;;;;11.57;8.65;;;;;;;;;;5005198;28;20057;-78
2022/05/06 03:56:18;;;;;;;12.65;9.25;;;;;;;;;;5013393;28;20451;-78
2022/05/06 03:58:44;;;;;;;11.73;9.13;;;;;;;;;;5034402;28;20048;-78
2022/05/06 04:01:11;;;;;;;12.05;9.63;;;;;;;;;;5002232;28;20494;-78
2022/05/06 04:03:38;;;;;;;13.45;10.68;;;;;;;;;;5015832;28;20516;-78
2022/05/06 04:06:04;;;;;;;13.25;10.20;;;;;;;;;;5018904;28;20378;-78
2022/05/06 04:08:31;;;;;;;16.45;11.18;;;;;;;;;;5011215;28;20038;-77
2022/05/06 04:10:57;;;;;;;13.80;9.98;;;;;;;;;;5039964;28;20046;-77
2022/05/06 04:13:23;;;;;;;13.18;10.85;;;;;;;;;;5009848;28;20086;-78
2022/05/06 04:15:50;;;;;;;14.68;10.15;;;;;;;;;;5020051;28;20175;-78
2022/05/06 04:18:17;;;;;;;18.50;10.90;;;;;;;;;;5009332;28;20100;-77
2022/05/06 04:23:33;;;;;;;11.82;9.82;;;;;;;;;;5007863;28;20697;-77
2022/05/06 04:26:12;;;;;;;13.35;10.20;;;;;;;;;;5044771;28;20406;-77
2022/05/06 04:28:38;;;;;;;14.05;11.07;;;;;;;;;;5003602;28;20087;-77
2022/05/06 04:31:05;;;;;;;11.93;9.45;;;;;;;;;;5003888;28;20504;-78
2022/05/06 04:33:38;;;;;;;11.43;9.43;;;;;;;;;;5005635;28;20192;-78
2022/05/06 04:36:04;;;;;;;11.50;9.15;;;;;;;;;;5008613;28;20130;-78
2022/05/06 04:38:31;;;;;;;10.85;9.00;;;;;;;;;;5008293;28;20045;-78
2022/05/06 04:40:58;;;;;;;11.75;8.70;;;;;;;;;;5007504;28;20049;-78
2022/05/06 04:43:26;;;;;;;11.20;8.90;;;;;;;;;;5023304;28;20045;-77
2022/05/06 04:45:55;;;;;;;9.07;7.63;;;;;;;;;;5008787;28;20163;-77
2022/05/06 04:48:25;;;;;;;8.15;6.97;;;;;;;;;;5019015;28;20050;-77
2022/05/06 04:50:51;;;;;;;8.45;6.95;;;;;;;;;;5042262;28;20417;-78
2022/05/06 04:53:17;;;;;;;9.00;7.50;;;;;;;;;;5007221;28;20046;-77
2022/05/06 04:55:46;;;;;;;9.20;7.63;;;;;;;;;;4998577;28;20077;-78
2022/05/06 04:58:13;;;;;;;6.57;5.90;;;;;;;;;;5009310;28;20045;-77
2022/05/06 05:00:38;;;;;;;6.15;5.55;;;;;;;;;;5006205;28;20076;-78
2022/05/06 05:03:04;;;;;;;7.00;6.10;;;;;;;;;;5017541;28;20119;-77
2022/05/06 05:05:31;;;;;;;9.00;5.85;;;;;;;;;;5002284;28;20147;-77
2022/05/06 05:07:57;;;;;;;6.32;5.32;;;;;;;;;;5035664;28;20049;-77
2022/05/06 05:10:23;;;;;;;5.50;5.00;;;;;;;;;;5005083;28;20148;-77
2022/05/06 05:12:49;;;;;;;7.10;6.40;;;;;;;;;;5004577;28;20061;-77
2022/05/06 05:15:15;;;;;;;6.40;5.05;;;;;;;;;;5005598;28;20076;-77
2022/05/06 05:17:42;;;;;;;5.32;4.82;;;;;;;;;;5009505;28;20128;-78
2022/05/06 05:20:09;;;;;;;5.97;5.05;;;;;;;;;;5014941;28;20053;-78
2022/05/06 05:22:36;;;;;;;5.80;5.20;;;;;;;;;;5007440;28;20473;-77
2022/05/06 05:25:03;;;;;;;4.97;4.57;;;;;;;;;;5010691;28;20092;-77
2022/05/06 05:27:30;;;;;;;4.63;4.20;;;;;;;;;;5033054;28;20453;-78
2022/05/06 05:29:57;;;;;;;4.93;4.50;;;;;;;;;;5014939;28;20096;-77
2022/05/06 05:32:23;;;;;;;4.53;4.13;;;;;;;;;;5004368;28;20054;-77
2022/05/06 05:34:52;;;;;;;4.68;4.28;;;;;;;;;;5017277;28;20575;-77
2022/05/06 05:37:18;;;;;;;4.13;3.78;;;;;;;;;;5010197;28;20050;-77
2022/05/06 05:39:45;;;;;;;4.40;4.10;;;;;;;;;;5005674;28;20053;-77
2022/05/06 05:42:13;;;;;;;4.32;3.92;;;;;;;;;;5035098;28;20050;-78
2022/05/06 05:50:09;;;;;;;5.57;5.07;;;;;;;;;;5005030;28;20049;-78
2022/05/06 05:52:35;;;;;;;5.43;5.00;;;;;;;;;;5004989;28;20046;-78
2022/05/06 05:55:01;;;;;;;6.82;6.13;;;;;;;;;;5009953;28;20066;-78
2022/05/06 05:57:29;;;;;;;5.82;5.32;;;;;;;;;;5044186;28;20046;-78
2022/05/06 05:59:55;;;;;;;5.25;4.75;;;;;;;;;;5005759;28;20494;-78
2022/05/06 06:02:21;;;;;;;5.40;5.00;;;;;;;;;;5005868;28;20049;-78
2022/05/06 06:04:48;;;;;;;4.32;4.03;;;;;;;;;;5004577;28;20414;-78
2022/05/06 06:07:14;;;;;;;5.10;4.70;;;;;;;;;;5034805;28;20038;-78
2022/05/06 06:09:40;;;;;;;4.38;4.07;;;;;;;;;;5006634;28;20407;-78
2022/05/06 06:12:06;;;;;;;10.27;5.40;;;;;;;;;;5041150;28;20470;-78
2022/05/06 06:14:32;;;;;;;4.40;4.00;;;;;;;;;;5010784;28;20096;-78
2022/05/06 06:16:58;;;;;;;4.22;3.92;;;;;;;;;;5013033;28;20092;-78
2022/05/06 06:19:24;;;;;;;4.90;4.47;;;;;;;;;;5013023;28;20046;-78
2022/05/06 06:21:50;;;;;;;4.22;3.83;;;;;;;;;;5000407;28;20056;-82
2022/05/06 06:24:19;;;;;;;4.82;4.32;;;;;;;;;;5004158;28;20386;-77
2022/05/06 06:26:45;;;;;;;4.50;4.10;;;;;;;;;;5001118;28;20125;-77
2022/05/06 06:29:11;;;;;;;3.60;3.40;;;;;;;;;;5008454;28;20041;-78
2022/05/06 06:31:38;;;;;;;4.60;4.20;;;;;;;;;;5002431;28;20111;-80
2022/05/06 06:34:04;;;;;;;4.78;4.38;;;;;;;;;;5005073;28;20076;-80
2022/05/06 06:36:33;;;;;;;4.25;3.95;;;;;;;;;;5009056;28;20049;-78
2022/05/06 06:38:59;;;;;;;4.65;4.28;;;;;;;;;;5007602;28;20060;-80
2022/05/06 06:41:26;;;;;;;5.20;4.28;;;;;;;;;;5009690;28;20129;-79
2022/05/06 06:43:52;;;;;;;4.07;3.78;;;;;;;;;;5003693;28;20038;-79
2022/05/06 06:46:18;;;;;;;4.70;4.28;;;;;;;;;;5010305;28;20069;-79
2022/05/06 06:48:47;;;;;;;4.22;3.83;;;;;;;;;;5010043;28;20042;-80
2022/05/06 06:51:13;;;;;;;4.22;3.90;;;;;;;;;;5014504;28;20145;-81
2022/05/06 06:53:39;;;;;;;4.32;4.03;;;;;;;;;;5009997;28;20145;-83
2022/05/06 06:56:05;;;;;;;4.25;3.92;;;;;;;;;;5043397;28;20455;-82
2022/05/06 06:58:31;;;;;;;7.20;3.83;;;;;;;;;;5020954;28;20124;-79
2022/05/06 07:00:58;;;;;;;4.10;3.80;;;;;;;;;;5030987;28;20489;-80
2022/05/06 07:03:24;;;;;;;4.43;4.03;;;;;;;;;;5018294;28;20481;-82
2022/05/06 07:14:08;;;;;;;4.53;3.40;;;;;;;;;;5021405;28;20038;-81
2022/05/06 07:16:35;;;;;;;3.40;3.10;;;;;;;;;;5038008;28;20116;-81
2022/05/06 07:19:01;;;;;;;3.15;2.95;;;;;;;;;;5007487;28;20097;-87
2022/05/06 07:21:27;;;;;;;3.05;2.85;;;;;;;;;;5045898;28;20405;-78
2022/05/06 07:23:53;;;;;;;2.90;2.70;;;;;;;;;;5013057;28;20042;-79
2022/05/06 07:26:22;;;;;;;3.15;2.95;;;;;;;;;;5026487;28;20053;-79
2022/05/06 07:28:48;;;;;;;2.90;2.70;;;;;;;;;;5016809;28;20038;-80
2022/05/06 07:31:14;;;;;;;3.30;3.00;;;;;;;;;;5021601;28;20041;-80
2022/05/06 07:33:43;;;;;;;3.20;3.00;;;;;;;;;;5005582;28;20050;-79
2022/05/06 07:36:09;;;;;;;3.03;2.83;;;;;;;;;;4999081;28;20091;-79
2022/05/06 07:38:38;;;;;;;3.13;2.92;;;;;;;;;;5011878;28;20427;-79
2022/05/06 07:41:07;;;;;;;3.80;3.50;;;;;;;;;;5011615;28;20060;-79
2022/05/06 07:43:34;;;;;;;4.43;4.03;;;;;;;;;;5012041;28;20194;-79
2022/05/06 07:46:00;;;;;;;4.20;3.90;;;;;;;;;;5018913;28;20072;-79
2022/05/06 07:48:26;;;;;;;3.70;3.40;;;;;;;;;;5026074;28;20050;-79
2022/05/06 07:50:52;;;;;;;3.17;2.97;;;;;;;;;;5025684;28;20053;-79
2022/05/06 07:53:19;;;;;;;3.00;2.80;;;;;;;;;;5013144;28;20092;-79
2022/05/06 07:55:45;;;;;;;3.25;2.90;;;;;;;;;;5004393;28;20097;-79
2022/05/06 07:58:12;;;;;;;2.80;2.60;;;;;;;;;;5020257;28;20507;-79
2022/05/06 08:00:38;;;;;;;3.40;3.20;;;;;;;;;;5013049;28;20056;-80
2022/05/06 08:05:56;;;;;;;3.00;2.80;;;;;;;;;;5009431;28;20042;-80
2022/05/06 08:08:22;;;;;;;3.10;2.90;;;;;;;;;;5000054;28;20034;-80
2022/05/06 08:10:48;;;;;;;3.22;2.95;;;;;;;;;;5000175;28;20056;-79
2022/05/06 08:13:14;;;;;;;3.25;3.05;;;;;;;;;;5039241;28;20044;-80
2022/05/06 08:15:40;;;;;;;4.03;3.63;;;;;;;;;;5012166;28;20048;-80
2022/05/06 08:18:09;;;;;;;3.97;3.55;;;;;;;;;;5038873;28;20057;-79
2022/05/06 08:20:35;;;;;;;3.72;3.42;;;;;;;;;;5009900;28;20042;-81
2022/05/06 08:23:01;;;;;;;3.83;3.53;;;;;;;;;;5007200;28;20493;-80
2022/05/06 08:25:27;;;;;;;4.18;3.78;;;;;;;;;;5008573;28;20045;-80
2022/05/06 08:27:54;;;;;;;5.07;3.70;;;;;;;;;;5036128;28;20046;-80
2022/05/06 08:30:20;;;;;;;3.80;3.50;;;;;;;;;;4991859;28;20058;-80
2022/05/06 08:32:45;;;;;;;4.60;4.20;;;;;;;;;;4992217;28;20137;-79
2022/05/06 08:35:12;;;;;;;4.55;4.15;;;;;;;;;;4992578;28;20078;-80
2022/05/06 08:37:41;;;;;;;8.07;4.10;;;;;;;;;;5001501;28;20045;-80
2022/05/06 08:40:08;;;;;;;4.53;3.55;;;;;;;;;;5010274;28;20100;-79
2022/05/06 08:42:34;;;;;;;4.05;3.67;;;;;;;;;;5008386;28;20074;-79
2022/05/06 08:53:16;;;;;;;3.72;3.42;;;;;;;;;;5001154;28;20485;-80
2022/05/06 08:55:42;;;;;;;3.88;3.58;;;;;;;;;;5031268;28;20041;-80
2022/05/06 08:58:08;;;;;;;4.55;3.58;;;;;;;;;;5009484;28;20041;-81
2022/05/06 09:00:37;;;;;;;4.05;3.70;;;;;;;;;;4999034;28;20084;-80
2022/05/06 09:03:03;;;;;;;4.05;3.67;;;;;;;;;;5041120;28;20045;-81
2022/05/06 09:05:47;;;;;;;3.97;3.67;;;;;;;;;;5041840;28;20128;-80
2022/05/06 09:08:13;;;;;;;5.35;4.50;;;;;;;;;;5006752;28;20046;-81
2022/05/06 09:10:39;;;;;;;5.07;4.57;;;;;;;;;;5035654;28;20045;-82
2022/05/06 09:13:06;;;;;;;4.55;4.20;;;;;;;;;;4997578;28;20050;-81
2022/05/06 09:18:21;;;;;;;4.32;3.72;;;;;;;;;;5005772;28;20046;-81
2022/05/06 09:20:49;;;;;;;4.72;4.20;;;;;;;;;;5020586;28;20110;-81
2022/05/06 09:23:25;;;;;;;5.00;4.50;;;;;;;;;;4991684;28;20407;-81
2022/05/06 09:25:52;;;;;;;5.03;4.53;;;;;;;;;;5013527;28;20537;-81
2022/05/06 09:28:23;;;;;;;4.55;4.15;;;;;;;;;;5001578;28;20053;-78
2022/05/06 09:31:06;;;;;;;3.60;3.30;;;;;;;;;;5024312;28;20065;-80
2022/05/06 09:33:34;;;;;;;4.60;4.07;;;;;;;;;;5008142;28;20529;-79
2022/05/06 09:36:20;;;;;;;4.60;4.20;;;;;;;;;;5008399;28;20460;-79
2022/05/06 09:39:05;;;;;;;4.90;4.40;;;;;;;;;;5047979;28;20042;-79
2022/05/06 09:41:32;;;;;;;5.07;4.32;;;;;;;;;;5034467;28;20042;-79
2022/05/06 09:44:02;;;;;;;7.03;4.25;;;;;;;;;;4994857;28;20153;-81
2022/05/06 09:46:28;;;;;;;4.88;4.40;;;;;;;;;;5026296;28;20119;-82
2022/05/06 09:48:56;;;;;;;4.55;4.25;;;;;;;;;;4999530;28;20053;-81
2022/05/06 09:51:26;;;;;;;4.60;4.20;;;;;;;;;;4999624;28;20049;-80
2022/05/06 09:53:52;;;;;;;4.88;4.47;;;;;;;;;;5040574;28;20505;-80
2022/05/06 09:56:19;;;;;;;5.20;4.70;;;;;;;;;;5014880;28;20092;-80
2022/05/06 09:58:46;;;;;;;5.60;5.07;;;;;;;;;;5011204;28;20042;-80
2022/05/06 10:01:12;;;;;;;5.60;5.10;;;;;;;;;;5017236;28;20519;-78
2022/05/06 10:03:39;;;;;;;5.85;5.35;;;;;;;;;;5015162;28;20049;-80
2022/05/06 10:06:06;;;;;;;6.32;5.28;;;;;;;;;;5011171;28;20132;-81
2022/05/06 10:08:32;;;;;;;5.78;5.28;;;;;;;;;;5013034;28;20097;-79
2022/05/06 10:11:02;;;;;;;6.40;5.22;;;;;;;;;;5018480;28;20038;-80
2022/05/06 10:13:30;;;;;;;5.95;5.35;;;;;;;;;;5021754;28;20051;-80
2022/05/06 10:15:56;;;;;;;6.05;5.55;;;;;;;;;;5002957;28;20052;-81
2022/05/06 10:18:32;;;;;;;6.28;5.68;;;;;;;;;;5011419;28;20552;-80
2022/05/06 10:20:59;;;;;;;5.78;5.28;;;;;;;;;;5012594;28;20218;-78
2022/05/06 10:23:42;;;;;;;6.68;6.07;;;;;;;;;;5008118;28;20545;-79
2022/05/06 10:26:08;;;;;;;6.75;6.15;;;;;;;;;;5004827;28;20401;-78
2022/05/06 10:34:14;;;;;;;7.95;7.22;;;;;;;;;;5037095;28;20545;-78
2022/05/06 10:36:41;;;;;;;8.00;7.15;;;;;;;;;;5036607;28;20081;-78
2022/05/06 10:39:27;;;;;;;7.60;6.88;;;;;;;;;;5032933;28;20073;-79
2022/05/06 10:42:11;;;;;;;8.10;7.30;;;;;;;;;;5001707;28;20092;-79
2022/05/06 10:44:37;;;;;;;7.50;6.90;;;;;;;;;;5036487;28;20406;-79
2022/05/06 10:47:23;;;;;;;8.88;7.55;;;;;;;;;;4999116;28;20151;-79
2022/05/06 10:49:50;;;;;;;8.23;7.45;;;;;;;;;;5007799;28;20571;-79
2022/05/06 10:52:20;;;;;;;8.52;7.65;;;;;;;;;;5011370;28;20584;-79
2022/05/06 10:54:49;;;;;;;8.25;7.25;;;;;;;;;;5000979;28;20034;-79
2022/05/06 10:57:16;;;;;;;8.95;7.72;;;;;;;;;;5016584;28;20082;-79
2022/05/06 10:59:58;;;;;;;8.15;7.35;;;;;;;;;;4995548;28;20046;-79
2022/05/06 11:02:25;;;;;;;8.60;7.80;;;;;;;;;;4996028;28;20134;-79
2022/05/06 11:04:59;;;;;;;8.68;7.88;;;;;;;;;;5031805;28;20057;-79
2022/05/06 11:07:25;;;;;;;;;;;;;;;;;;5028614;28;20511;-79
2022/05/06 11:09:54;;;;;;;9.00;8.10;;;;;;;;;;5034734;28;20015;-78
2022/05/06 11:12:39;;;;;;;9.43;8.40;;;;;;;;;;5010778;28;20130;-78
2022/05/06 11:15:13;;;;;;;9.32;8.32;;;;;;;;;;4993995;28;20046;-78
2022/05/06 11:17:39;;;;;;;9.00;8.20;;;;;;;;;;4995621;28;20054;-78
2022/05/06 11:20:16;;;;;;;9.65;8.70;;;;;;;;;;4994433;28;20094;-78
2022/05/06 11:22:48;;;;;;;9.52;8.65;;;;;;;;;;5025888;28;20046;-78
2022/05/06 11:25:18;;;;;;;8.93;8.05;;;;;;;;;;5010962;28;20407;-78
2022/05/06 11:27:44;;;;;;;9.88;9.00;;;;;;;;;;5039301;28;20057;-78
2022/05/06 11:30:16;;;;;;;9.98;9.18;;;;;;;;;;5008938;28;20046;-78
2022/05/06 11:32:52;;;;;;;9.40;8.50;;;;;;;;;;5031855;28;20049;-78
2022/05/06 11:35:20;;;;;;;10.48;9.38;;;;;;;;;;5012926;28;20096;-78
2022/05/06 11:37:47;;;;;;;11.00;9.95;;;;;;;;;;5000140;28;20450;-78
2022/05/06 11:42:55;;;;;;;11.55;10.35;;;;;;;;;;5026785;28;20380;-78
2022/05/06 11:48:07;;;;;;;15.48;11.13;;;;;;;;;;5000940;28;20449;-76
2022/05/06 11:50:40;;;;;;;12.68;11.32;;;;;;;;;;4993777;28;20049;-78
2022/05/06 11:53:08;;;;;;;14.38;11.75;;;;;;;;;;4995122;28;20057;-78
2022/05/06 11:55:35;;;;;;;13.15;11.80;;;;;;;;;;5002726;28;20424;-78
2022/05/06 11:58:02;;;;;;;12.48;11.18;;;;;;;;;;5031407;28;20057;-79
2022/05/06 12:00:29;;;;;;;13.73;12.32;;;;;;;;;;5012927;28;20049;-79
2022/05/06 12:02:55;;;;;;;16.90;13.05;;;;;;;;;;5002824;28;20050;-78
2022/05/06 12:05:21;;;;;;;13.55;12.15;;;;;;;;;;5008571;28;20108;-78
2022/05/06 12:07:48;;;;;;;15.95;11.80;;;;;;;;;;5004007;28;20056;-79
2022/05/06 12:10:31;;;;;;;17.65;12.85;;;;;;;;;;4997503;28;20053;-79
2022/05/06 12:12:58;;;;;;;14.35;12.82;;;;;;;;;;5013752;28;20046;-79
2022/05/06 12:15:30;;;;;;;14.98;13.27;;;;;;;;;;5007964;28;20038;-79
2022/05/06 12:18:07;;;;;;;16.48;13.75;;;;;;;;;;5009510;28;20402;-79
2022/05/06 12:20:41;;;;;;;18.98;13.88;;;;;;;;;;5003328;28;20451;-78
2022/05/06 12:23:08;;;;;;;18.75;14.50;;;;;;;;;;4994388;28;20050;-79
2022/05/06 12:25:35;;;;;;;18.83;13.63;;;;;;;;;;4998834;28;21545;-78
2022/05/06 12:28:05;;;;;;;15.18;13.57;;;;;;;;;;5035396;28;20054;-79
2022/05/06 12:30:31;;;;;;;14.80;13.30;;;;;;;;;;5000181;28;20046;-79
2022/05/06 12:33:01;;;;;;;15.63;13.35;;;;;;;;;;5026560;28;20050;-79
2022/05/06 12:35:27;;;;;;;15.32;13.73;;;;;;;;;;5008675;28;20049;-79
2022/05/06 12:37:54;;;;;;;15.90;14.18;;;;;;;;;;5012740;28;20040;-79
2022/05/06 12:40:20;;;;;;;15.77;13.65;;;;;;;;;;5008539;28;20129;-79
2022/05/06 12:43:02;;;;;;;15.10;13.18;;;;;;;;;;5011652;28;20375;-78
2022/05/06 12:45:28;;;;;;;13.90;12.50;;;;;;;;;;5004242;28;20431;-79
2022/05/06 12:50:39;;;;;;;17.58;13.48;;;;;;;;;;5001026;28;20124;-79
2022/05/06 12:53:06;;;;;;;14.45;12.95;;;;;;;;;;5001470;28;20046;-79
2022/05/06 12:55:33;;;;;;;15.05;13.45;;;;;;;;;;4993349;28;20046;-79
2022/05/06 12:57:59;;;;;;;16.55;13.70;;;;;;;;;;5007344;28;20046;-79
2022/05/06 13:00:26;;;;;;;14.82;13.32;;;;;;;;;;5001026;28;20506;-79
2022/05/06 13:02:55;;;;;;;15.00;12.85;;;;;;;;;;5035453;28;20065;-78
2022/05/06 13:05:22;;;;;;;15.48;13.88;;;;;;;;;;4997722;28;20072;-79
2022/05/06 13:07:51;;;;;;;15.82;13.85;;;;;;;;;;4991536;28;20478;-78
2022/05/06 13:10:17;;;;;;;14.20;12.70;;;;;;;;;;5040510;28;20049;-79
2022/05/06 13:12:45;;;;;;;16.58;14.02;;;;;;;;;;5003029;28;20038;-79
2022/05/06 13:15:11;;;;;;;14.02;12.55;;;;;;;;;;4993173;28;20042;-78
2022/05/06 13:17:37;;;;;;;14.73;13.23;;;;;;;;;;4994281;28;20082;-79
2022/05/06 13:20:07;;;;;;;14.27;12.77;;;;;;;;;;4994751;28;20129;-79
2022/05/06 13:22:34;;;;;;;14.30;12.90;;;;;;;;;;4993669;28;20489;-78
2022/05/06 13:25:02;;;;;;;15.13;12.95;;;;;;;;;;5001736;28;20042;-79
2022/05/06 13:27:28;;;;;;;15.05;13.48;;;;;;;;;;5003835;28;20549;-78
2022/05/06 13:29:54;;;;;;;20.63;13.75;;;;;;;;;;4993273;28;20081;-79
2022/05/06 13:32:23;;;;;;;15.73;13.40;;;;;;;;;;5035626;28;20052;-79
2022/05/06 13:34:49;;;;;;;14.38;12.88;;;;;;;;;;4994913;28;20052;-78
2022/05/06 13:37:15;;;;;;;15.07;13.43;;;;;;;;;;4996908;28;20066;-78
2022/05/06 13:39:41;;;;;;;15.10;13.10;;;;;;;;;;4996601;28;20042;-78
2022/05/06 13:42:07;;;;;;;13.52;12.23;;;;;;;;;;5011446;28;20138;-78
2022/05/06 13:44:33;;;;;;;13.88;12.43;;;;;;;;;;5003520;28;20482;-79
2022/05/06 13:47:00;;;;;;;13.52;12.25;;;;;;;;;;5010388;28;20057;-79
2022/05/06 13:49:26;;;;;;;13.75;12.45;;;;;;;;;;5003801;28;20532;-78
2022/05/06 13:51:52;;;;;;;14.15;12.85;;;;;;;;;;5021929;28;20046;-79
2022/05/06 13:54:18;;;;;;;13.05;11.77;;;;;;;;;;4999551;28;20548;-78
2022/05/06 13:59:31;;;;;;;12.88;11.45;;;;;;;;;;5003620;28;20129;-78
2022/05/06 14:01:57;;;;;;;13.52;12.23;;;;;;;;;;5000968;28;20054;-79
2022/05/06 14:04:23;;;;;;;13.93;12.02;;;;;;;;;;4996159;28;20073;-78
2022/05/06 14:06:49;;;;;;;13.20;11.90;;;;;;;;;;5001666;28;20046;-78
2022/05/06 14:09:15;;;;;;;13.68;12.23;;;;;;;;;;4994426;28;20125;-78
2022/05/06 14:11:41;;;;;;;13.77;11.85;;;;;;;;;;5004976;28;20065;-79
2022/05/06 14:14:08;;;;;;;12.55;11.35;;;;;;;;;;5013421;28;20156;-79
2022/05/06 14:16:34;;;;;;;12.15;11.00;;;;;;;;;;4995426;28;20467;-79
2022/05/06 14:19:00;;;;;;;12.27;11.00;;;;;;;;;;4994565;28;20086;-79
2022/05/06 14:21:26;;;;;;;12.57;11.40;;;;;;;;;;5005195;28;20046;-79
2022/05/06 14:23:52;;;;;;;11.95;10.15;;;;;;;;;;5013476;28;20050;-79
2022/05/06 14:26:18;;;;;;;11.90;10.70;;;;;;;;;;5015637;28;20045;-79
2022/05/06 14:28:44;;;;;;;11.43;10.05;;;;;;;;;;5001488;28;20042;-79
2022/05/06 14:31:10;;;;;;;11.90;10.27;;;;;;;;;;4998837;28;20394;-79
2022/05/06 14:33:36;;;;;;;11.80;10.18;;;;;;;;;;5014096;28;20056;-79
2022/05/06 14:36:03;;;;;;;10.93;9.32;;;;;;;;;;4994909;28;20046;-78
2022/05/06 14:38:29;;;;;;;10.55;8.73;;;;;;;;;;5027262;28;20086;-79
2022/05/06 14:40:55;;;;;;;10.00;9.10;;;;;;;;;;5025288;28;20045;-78
2022/05/06 14:43:22;;;;;;;9.77;8.82;;;;;;;;;;5028068;28;20050;-79
2022/05/06 14:45:49;;;;;;;9.95;8.48;;;;;;;;;;5013896;28;20133;-79
2022/05/06 14:48:15;;;;;;;9.02;8.20;;;;;;;;;;5013818;28;20069;-79
2022/05/06 14:50:41;;;;;;;10.63;9.00;;;;;;;;;;5002927;28;20125;-79
2022/05/06 14:53:08;;;;;;;9.13;8.07;;;;;;;;;;4994917;28;20050;-79
2022/05/06 14:55:34;;;;;;;8.88;8.07;;;;;;;;;;4994780;28;20501;-80
2022/05/06 14:58:00;;;;;;;8.27;7.55;;;;;;;;;;4993371;28;20132;-79
2022/05/06 15:00:35;;;;;;;8.73;7.75;;;;;;;;;;5008703;28;20067;-78
2022/05/06 15:03:01;;;;;;;9.95;8.27;;;;;;;;;;5007790;28;20057;-79
2022/05/06 15:05:30;;;;;;;8.40;7.60;;;;;;;;;;4994144;28;20048;-79
2022/05/06 15:07:56;;;;;;;8.45;7.38;;;;;;;;;;4998673;28;20093;-79
2022/05/06 15:10:22;;;;;;;8.57;7.38;;;;;;;;;;5038366;28;20042;-80
2022/05/06 15:12:48;;;;;;;8.25;7.28;;;;;;;;;;5013764;28;20053;-78
2022/05/06 15:15:14;;;;;;;7.97;7.18;;;;;;;;;;5012009;28;20493;-79
2022/05/06 15:17:40;;;;;;;7.40;6.75;;;;;;;;;;5000078;28;20156;-79
2022/05/06 15:20:06;;;;;;;7.03;6.00;;;;;;;;;;4993442;28;20392;-79
2022/05/06 15:22:35;;;;;;;6.82;6.13;;;;;;;;;;5045485;28;20054;-79
2022/05/06 15:25:02;;;;;;;8.23;6.68;;;;;;;;;;4997153;28;20490;-79
2022/05/06 15:27:28;;;;;;;6.90;5.88;;;;;;;;;;5012875;28;20073;-79
2022/05/06 15:29:54;;;;;;;6.80;6.07;;;;;;;;;;5011294;28;20489;-79